Time;durP1;ratioP1;P1;durP2;ratioP2;P2;SDS_P1;SDS_P2;PMS_P1;PMS_P2;Temp;Humidity;BMP_temperature;BMP_pressure;BME280_temperature;BME280_humidity;BME280_pressure;Samples;Min_cycle;Max_cycle;Signal;HPM_P1;HPM_P2
2022/01/11 00:00:26;;;;;;;26.12;11.12;;;;;;;-4.28;71.87;100734.56;1740712;81;21070;-73
2022/01/11 00:02:55;;;;;;;7.95;4.42;;;;;;;-4.26;71.88;100735.83;1766118;81;22836;-73
2022/01/11 00:05:27;;;;;;;7.40;4.33;;;;;;;-4.29;71.77;100738.02;1769638;79;20955;-73
2022/01/11 00:07:52;;;;;;;9.53;5.78;;;;;;;-4.33;71.73;100734.64;1740667;81;20980;-74
2022/01/11 00:10:28;;;;;;;38.48;19.80;;;;;;;-4.36;71.83;100743.68;1718563;83;21607;-73
2022/01/11 00:12:53;;;;;;;14.95;8.45;;;;;;;-4.32;71.91;100751.81;1719021;82;21439;-73
2022/01/11 00:15:21;;;;;;;6.97;4.00;;;;;;;-4.30;71.88;100742.77;1726363;81;21023;-72
2022/01/11 00:17:48;;;;;;;5.67;3.70;;;;;;;-4.32;71.62;100750.96;1769632;81;20952;-73
2022/01/11 00:20:16;;;;;;;5.50;3.67;;;;;;;-4.37;71.45;100746.28;1769691;81;21062;-73
2022/01/11 00:25:34;;;;;;;6.15;4.22;;;;;;;-4.42;71.27;100750.22;1728391;81;21012;-73
2022/01/11 00:28:00;;;;;;;6.20;4.12;;;;;;;-4.46;71.30;100747.69;1718266;83;21843;-75
2022/01/11 00:30:33;;;;;;;7.03;3.87;;;;;;;-4.44;71.40;100752.37;1732419;82;20984;-74
2022/01/11 00:32:58;;;;;;;5.28;3.35;;;;;;;-4.44;71.39;100754.95;1755358;81;21026;-74
2022/01/11 00:35:28;;;;;;;6.25;4.00;;;;;;;-4.46;71.23;100746.39;1770047;81;21106;-74
2022/01/11 00:37:52;;;;;;;12.00;8.13;;;;;;;-4.47;71.22;100751.14;1769342;81;20963;-74
2022/01/11 00:40:18;;;;;;;6.95;4.42;;;;;;;-4.46;71.26;100754.13;1769977;81;22095;-74
2022/01/11 00:42:45;;;;;;;9.78;6.70;;;;;;;-4.46;71.14;100748.53;1721574;81;20893;-73
2022/01/11 00:45:13;;;;;;;14.40;10.53;;;;;;;-4.48;71.08;100749.00;1734790;82;20959;-73
2022/01/11 13:31:36;;;;;;;4.15;3.00;;;;;;;-3.07;60.60;101046.23;1756838;81;22193;-68
2022/01/11 13:34:09;;;;;;;5.05;3.15;;;;;;;-3.06;60.86;101050.96;1755663;81;20965;-69
2022/01/11 13:36:41;;;;;;;4.65;3.05;;;;;;;-3.07;61.05;101050.11;1743545;82;21541;-68
2022/01/11 13:39:22;;;;;;;3.80;2.62;;;;;;;-3.12;61.13;101053.17;1755262;81;20984;-68
2022/01/11 13:41:54;;;;;;;6.55;2.92;;;;;;;-3.13;61.39;101059.66;1757521;81;22988;-68
2022/01/11 13:44:27;;;;;;;5.20;2.87;;;;;;;-3.17;61.33;101054.98;1725752;82;20961;-69
2022/01/11 13:47:07;;;;;;;5.47;3.10;;;;;;;-3.20;61.43;101056.28;1718587;82;21047;-69
2022/01/11 13:49:48;;;;;;;5.58;3.58;;;;;;;-3.24;61.47;101047.73;1718449;82;20981;-69
2022/01/11 13:52:17;;;;;;;4.87;3.50;;;;;;;-3.25;61.56;101056.79;1718921;83;20976;-68
2022/01/11 13:54:53;;;;;;;4.92;3.17;;;;;;;-3.21;61.68;101058.02;1718605;82;21831;-69
2022/01/11 13:57:29;;;;;;;4.62;2.87;;;;;;;-3.18;61.83;101056.70;1738320;81;20991;-69
2022/01/11 14:00:03;;;;;;;4.75;3.15;;;;;;;-3.18;62.20;101064.89;1755165;81;21047;-68
2022/01/11 14:02:31;;;;;;;4.72;3.20;;;;;;;-3.21;62.59;101066.20;1727057;81;21345;-69
2022/01/11 14:05:02;;;;;;;5.92;2.87;;;;;;;-3.20;63.02;101074.37;1753949;81;21033;-69
2022/01/11 14:07:32;;;;;;;4.45;3.02;;;;;;;-3.20;63.35;101071.78;1748757;81;22475;-69
2022/01/11 14:10:04;;;;;;;4.58;3.02;;;;;;;-3.18;63.71;101079.11;1748232;82;21050;-68
2022/01/11 14:12:46;;;;;;;5.53;3.93;;;;;;;-3.18;64.28;101081.25;1748793;82;21453;-70
2022/01/11 14:15:13;;;;;;;6.42;4.55;;;;;;;-3.21;64.58;101077.39;1748446;82;21550;-70
2022/01/11 14:17:40;;;;;;;6.17;4.65;;;;;;;-3.21;64.93;101073.52;1733839;82;21020;-71
2022/01/11 14:20:13;;;;;;;5.92;3.83;;;;;;;-3.27;65.51;101085.67;1718571;82;21748;-71
2022/01/11 14:22:46;;;;;;;6.50;3.72;;;;;;;-3.32;65.63;101083.12;1719005;82;20949;-71
2022/01/11 14:25:38;;;;;;;7.70;4.78;;;;;;;-3.34;66.07;101089.19;1718102;83;21142;-70
2022/01/11 14:28:11;;;;;;;6.85;4.42;;;;;;;-3.35;66.32;101088.77;1716995;83;21034;-71
2022/01/11 14:30:45;;;;;;;12.60;8.05;;;;;;;-3.38;66.52;101092.66;1717410;82;20928;-70
2022/01/11 14:33:26;;;;;;;9.18;6.25;;;;;;;-3.39;66.78;101099.55;1733439;82;21806;-70
2022/01/11 14:36:07;;;;;;;6.50;4.85;;;;;;;-3.39;66.96;101099.98;1744395;82;21028;-69
2022/01/11 14:38:50;;;;;;;8.08;5.12;;;;;;;-3.39;67.14;101103.86;1745278;82;21048;-70
2022/01/11 14:41:24;;;;;;;6.85;4.58;;;;;;;-3.41;67.27;101099.16;1745240;82;21024;-71
2022/01/11 14:44:01;;;;;;;13.48;7.40;;;;;;;-3.43;67.33;101103.05;1745492;82;21032;-71
2022/01/11 14:46:28;;;;;;;9.45;5.80;;;;;;;-3.46;67.37;101109.11;1745109;82;21707;-69
2022/01/11 14:49:04;;;;;;;8.45;5.37;;;;;;;-3.45;67.35;101109.96;1745150;82;21024;-69
2022/01/11 14:51:30;;;;;;;5.78;4.47;;;;;;;-3.44;67.36;101110.81;1744075;82;20993;-69
2022/01/11 14:53:58;;;;;;;6.28;4.30;;;;;;;-3.46;67.39;101115.56;1745185;82;21039;-70
2022/01/11 14:56:30;;;;;;;7.42;4.87;;;;;;;-3.47;67.58;101118.17;1745224;80;21036;-69
2022/01/11 14:59:05;;;;;;;5.37;4.40;;;;;;;-3.47;67.72;101113.86;1745474;82;21759;-70
2022/01/11 15:01:36;;;;;;;18.85;10.00;;;;;;;-3.46;67.82;101109.11;1741566;82;21012;-70
2022/01/11 15:04:12;;;;;;;10.98;6.50;;;;;;;-3.46;67.94;101109.11;1745261;82;21040;-69
2022/01/11 15:06:41;;;;;;;6.78;4.70;;;;;;;-3.44;68.05;101113.40;1745155;82;21024;-69
2022/01/11 15:09:17;;;;;;;6.60;4.62;;;;;;;-3.47;67.95;101115.15;1744262;82;21013;-69
2022/01/11 15:11:47;;;;;;;6.85;4.90;;;;;;;-3.49;68.03;101114.72;1745178;82;22417;-69
2022/01/11 15:14:16;;;;;;;8.80;5.25;;;;;;;-3.51;68.11;101119.91;1745058;82;21311;-70
2022/01/11 15:16:44;;;;;;;7.25;5.08;;;;;;;-3.52;68.19;101116.91;1745115;82;21548;-70
2022/01/11 15:19:10;;;;;;;6.05;4.10;;;;;;;-3.52;68.29;101125.94;1745336;82;21002;-69
2022/01/11 15:21:37;;;;;;;6.28;4.45;;;;;;;-3.51;68.36;101127.66;1745179;82;21002;-70
2022/01/11 15:24:04;;;;;;;5.50;3.72;;;;;;;-3.53;68.36;101131.13;1745474;82;22180;-69
2022/01/11 15:26:33;;;;;;;5.62;4.10;;;;;;;-3.54;68.45;101130.27;1721361;82;21031;-71
2022/01/11 15:29:04;;;;;;;10.43;4.47;;;;;;;-3.53;68.44;101133.71;1718121;83;21110;-71
2022/01/11 15:31:30;;;;;;;12.88;8.38;;;;;;;-3.55;68.45;101129.86;1720314;82;21074;-70
2022/01/11 15:33:57;;;;;;;7.47;5.30;;;;;;;-3.55;68.50;101129.86;1707586;82;21526;-70
2022/01/11 15:36:24;;;;;;;6.90;4.70;;;;;;;-3.53;68.51;101130.69;1730462;82;21792;-70
2022/01/11 15:38:50;;;;;;;9.83;7.08;;;;;;;-3.53;68.49;101126.81;1730626;82;21038;-68
2022/01/11 15:41:20;;;;;;;6.53;4.55;;;;;;;-3.52;68.39;101134.12;1730926;82;21054;-71
2022/01/11 15:43:46;;;;;;;6.33;4.37;;;;;;;-3.53;68.40;101134.56;1727014;81;21035;-70
2022/01/11 15:46:12;;;;;;;5.95;4.28;;;;;;;-3.52;68.35;101136.27;1725814;83;21105;-69
2022/01/11 15:48:39;;;;;;;6.20;4.35;;;;;;;-3.52;68.38;101128.53;1725704;83;22206;-69
2022/01/11 15:51:05;;;;;;;6.22;4.12;;;;;;;-3.51;68.36;101136.69;1725815;83;21042;-70
2022/01/11 15:53:32;;;;;;;5.53;3.98;;;;;;;-3.48;68.40;101139.67;1725938;83;21028;-70
2022/01/11 15:56:00;;;;;;;6.25;4.30;;;;;;;-3.48;68.39;101131.48;1725990;81;21024;-69
2022/01/11 15:58:27;;;;;;;5.72;4.50;;;;;;;-3.47;68.49;101138.39;1733092;81;21048;-69
2022/01/11 16:00:53;;;;;;;6.47;4.85;;;;;;;-3.50;68.45;101134.96;1755340;81;21738;-70
2022/01/11 16:03:19;;;;;;;6.67;4.50;;;;;;;-3.50;68.48;101138.84;1755983;81;20980;-69
2022/01/11 16:05:46;;;;;;;7.28;5.37;;;;;;;-3.52;68.54;101139.29;1756102;81;21629;-71
2022/01/11 16:08:13;;;;;;;8.13;4.83;;;;;;;-3.53;68.61;101138.44;1756303;81;21510;-70
2022/01/11 16:10:40;;;;;;;9.15;5.72;;;;;;;-3.50;68.68;101141.42;1755920;81;21018;-70
2022/01/11 16:13:09;;;;;;;8.95;5.75;;;;;;;-3.48;68.72;101139.67;1755952;81;20984;-69
2022/01/11 16:15:37;;;;;;;7.30;4.58;;;;;;;-3.46;68.68;101144.41;1756063;81;22068;-69
2022/01/11 16:18:04;;;;;;;7.10;4.47;;;;;;;-3.47;68.61;101148.72;1758164;81;21033;-69
2022/01/11 16:20:31;;;;;;;7.53;4.58;;;;;;;-3.47;68.62;101145.28;1758417;81;21083;-70
2022/01/11 16:22:57;;;;;;;11.20;6.40;;;;;;;-3.47;68.59;101155.61;1758376;81;21078;-69
2022/01/11 16:25:26;;;;;;;10.13;5.85;;;;;;;-3.49;68.49;101147.86;1758422;81;22192;-69
2022/01/11 16:27:54;;;;;;;8.88;5.47;;;;;;;-3.47;68.53;101153.03;1756667;81;21013;-67
2022/01/11 16:30:31;;;;;;;8.18;5.50;;;;;;;-3.45;68.51;101152.58;1755895;81;21015;-70
2022/01/11 16:33:00;;;;;;;8.45;5.78;;;;;;;-3.43;68.40;101153.41;1747645;81;21080;-69
2022/01/11 16:35:27;;;;;;;9.40;5.25;;;;;;;-3.43;68.34;101159.02;1766512;81;21014;-70
2022/01/11 16:37:54;;;;;;;7.47;5.33;;;;;;;-3.43;68.46;101159.02;1766500;81;22830;-69
2022/01/11 16:43:04;;;;;;;7.83;5.08;;;;;;;-3.46;68.52;101159.47;1740749;81;21022;-69
2022/01/11 16:45:33;;;;;;;9.13;5.62;;;;;;;-3.51;68.64;101163.80;1781605;79;21034;-71
2022/01/11 16:48:00;;;;;;;9.88;5.30;;;;;;;-3.57;68.78;101166.47;1772037;79;22153;-69
2022/01/11 16:50:27;;;;;;;9.00;5.92;;;;;;;-3.63;68.94;101166.94;1778061;79;22154;-69
2022/01/11 16:52:54;;;;;;;10.08;5.92;;;;;;;-3.68;69.11;101166.97;1782974;79;21019;-69
2022/01/11 16:55:22;;;;;;;10.05;6.05;;;;;;;-3.70;69.28;101172.58;1765317;79;21106;-69
2022/01/11 16:57:50;;;;;;;10.43;6.58;;;;;;;-3.71;69.36;101172.16;1764178;79;21045;-69
2022/01/11 17:00:17;;;;;;;11.05;6.83;;;;;;;-3.76;69.27;101164.91;1773811;79;21054;-71
2022/01/11 17:02:44;;;;;;;9.50;5.70;;;;;;;-3.80;69.26;101173.52;1778463;79;21762;-70
2022/01/11 17:05:10;;;;;;;10.55;6.85;;;;;;;-3.83;69.32;101176.14;1765597;79;21034;-69
2022/01/11 17:07:37;;;;;;;9.83;5.90;;;;;;;-3.83;69.47;101177.43;1732962;81;21059;-68
2022/01/11 17:10:13;;;;;;;10.60;6.35;;;;;;;-3.85;69.62;101183.05;1766607;80;20951;-69
2022/01/11 17:12:39;;;;;;;11.35;6.05;;;;;;;-3.86;69.57;101178.72;1767766;81;21067;-68
2022/01/11 17:15:08;;;;;;;9.50;6.53;;;;;;;-3.90;69.53;101183.06;1765759;79;21067;-70
2022/01/11 17:17:35;;;;;;;9.33;6.08;;;;;;;-3.93;69.48;101195.99;1767403;81;21011;-71
2022/01/11 17:20:04;;;;;;;10.75;6.10;;;;;;;-3.93;69.41;101199.01;1767522;79;21628;-70
2022/01/11 17:22:32;;;;;;;9.98;6.33;;;;;;;-3.94;69.29;101202.46;1740166;81;20964;-69
2022/01/11 17:24:58;;;;;;;10.98;6.12;;;;;;;-3.93;69.27;101206.75;1767357;79;21007;-68
2022/01/11 17:27:26;;;;;;;10.70;7.40;;;;;;;-3.90;69.26;101204.14;1766545;80;22192;-70
2022/01/11 17:29:53;;;;;;;24.40;14.80;;;;;;;-3.89;69.24;101209.72;1767498;80;20956;-70
2022/01/11 17:32:21;;;;;;;17.07;10.18;;;;;;;-3.93;69.16;101206.32;1763386;80;20975;-68
2022/01/11 17:34:48;;;;;;;15.20;9.58;;;;;;;-3.95;69.22;101205.91;1757814;81;21857;-68
2022/01/11 17:37:18;;;;;;;15.23;9.43;;;;;;;-3.95;69.22;101209.34;1757475;80;20940;-68
2022/01/11 17:39:44;;;;;;;12.23;6.80;;;;;;;-3.97;69.18;101212.78;1757948;80;21784;-68
2022/01/11 17:42:10;;;;;;;12.33;7.12;;;;;;;-3.98;69.13;101214.94;1755824;81;21015;-67
2022/01/11 17:44:38;;;;;;;10.15;6.40;;;;;;;-4.02;69.09;101208.95;1739669;81;21110;-68
2022/01/11 17:47:05;;;;;;;9.95;6.60;;;;;;;-4.01;69.09;101211.10;1749932;80;21432;-70
2022/01/11 17:49:34;;;;;;;10.88;6.40;;;;;;;-3.99;69.06;101213.23;1739297;82;21039;-70
2022/01/11 17:52:00;;;;;;;13.10;7.20;;;;;;;-3.97;69.08;101214.92;1747114;80;21665;-69
2022/01/11 17:54:27;;;;;;;9.35;5.87;;;;;;;-3.95;68.93;101217.53;1746843;81;21012;-70
2022/01/11 17:56:54;;;;;;;11.93;6.90;;;;;;;-3.95;68.92;101218.81;1752262;80;21048;-70
2022/01/11 17:59:20;;;;;;;11.12;6.95;;;;;;;-4.01;68.68;101226.15;1762176;81;21097;-68
2022/01/11 18:01:48;;;;;;;12.80;6.92;;;;;;;-4.09;68.65;101219.73;1765638;79;21051;-69
2022/01/11 18:04:16;;;;;;;10.48;6.80;;;;;;;-4.13;68.70;101227.52;1743603;81;21596;-69
2022/01/11 18:06:42;;;;;;;11.03;6.78;;;;;;;-4.16;68.69;101220.63;1778924;80;21374;-70
2022/01/11 18:09:08;;;;;;;10.98;6.62;;;;;;;-4.19;68.73;101223.67;1751849;81;21063;-69
2022/01/11 18:11:35;;;;;;;12.28;6.78;;;;;;;-4.21;68.82;101222.39;1752060;81;21059;-69
2022/01/11 18:14:02;;;;;;;9.20;6.20;;;;;;;-4.22;68.82;101220.69;1751832;81;21055;-69
2022/01/11 18:16:29;;;;;;;8.75;5.67;;;;;;;-4.25;68.84;101222.41;1739679;81;21822;-69
2022/01/11 18:19:00;;;;;;;9.13;5.25;;;;;;;-4.24;68.87;101226.29;1751521;81;21039;-70
2022/01/11 18:21:27;;;;;;;10.15;6.05;;;;;;;-4.29;68.82;101225.44;1735325;82;21046;-70
2022/01/11 18:23:53;;;;;;;14.60;8.83;;;;;;;-4.30;68.99;101226.31;1731354;82;21456;-69
2022/01/11 18:26:19;;;;;;;11.40;6.80;;;;;;;-4.31;68.98;101228.47;1705918;82;21051;-70
2022/01/11 18:28:46;;;;;;;9.60;4.92;;;;;;;-4.35;68.82;101226.31;1739948;82;21784;-70
2022/01/11 18:31:13;;;;;;;8.15;5.05;;;;;;;-4.38;68.72;101224.20;1749343;82;20973;-70
2022/01/11 18:33:39;;;;;;;7.12;4.55;;;;;;;-4.39;68.53;101235.38;1741367;81;21031;-70
2022/01/11 18:36:06;;;;;;;7.00;4.30;;;;;;;-4.41;68.45;101228.09;1726750;81;21046;-70
2022/01/11 18:38:33;;;;;;;7.78;4.85;;;;;;;-4.43;68.42;101240.14;1723975;82;21138;-72
2022/01/11 18:40:59;;;;;;;7.55;4.47;;;;;;;-4.45;68.26;101233.67;1753367;81;21784;-70
2022/01/11 18:43:26;;;;;;;6.28;3.90;;;;;;;-4.48;68.25;101240.14;1749907;80;20997;-71
2022/01/11 18:45:53;;;;;;;6.58;4.67;;;;;;;-4.49;68.33;101232.41;1736276;82;21029;-70
2022/01/11 18:48:20;;;;;;;8.85;4.78;;;;;;;-4.48;68.36;101229.83;1747233;82;21025;-70
2022/01/11 18:50:47;;;;;;;8.65;5.00;;;;;;;-4.45;68.49;101236.25;1729673;82;21545;-70
2022/01/11 18:53:13;;;;;;;8.30;5.47;;;;;;;-4.43;68.54;101235.83;1744260;81;22501;-69
2022/01/11 18:55:39;;;;;;;10.05;5.15;;;;;;;-4.42;68.76;101237.98;1676703;81;21448;-72
2022/01/11 18:58:06;;;;;;;8.40;4.78;;;;;;;-4.43;68.79;101237.55;1721199;83;21079;-71
2022/01/11 19:00:33;;;;;;;8.20;4.90;;;;;;;-4.48;68.61;101238.84;1741438;82;21064;-72
2022/01/11 19:02:59;;;;;;;6.83;4.20;;;;;;;-4.48;68.65;101223.37;1715808;82;21071;-70
2022/01/11 19:05:28;;;;;;;7.72;4.60;;;;;;;-4.51;68.20;101235.44;1758233;80;21808;-69
2022/01/11 19:07:56;;;;;;;7.53;4.65;;;;;;;-4.55;68.31;101236.30;1754317;81;21531;-71
2022/01/11 19:10:23;;;;;;;7.65;4.75;;;;;;;-4.59;68.24;101239.33;1758664;80;21022;-70
2022/01/11 19:12:50;;;;;;;7.55;4.40;;;;;;;-4.62;68.19;101240.20;1754130;81;21050;-69
2022/01/11 19:15:16;;;;;;;6.45;4.20;;;;;;;-4.64;68.25;101236.75;1743396;80;21560;-71
2022/01/11 19:17:43;;;;;;;7.70;4.72;;;;;;;-4.65;68.19;101240.63;1750535;81;23323;-70
2022/01/11 19:20:10;;;;;;;7.12;4.12;;;;;;;-4.67;68.19;101246.22;1727565;81;21507;-70
2022/01/11 19:22:37;;;;;;;6.60;3.87;;;;;;;-4.68;68.16;101240.21;1750457;81;21448;-69
2022/01/11 19:25:07;;;;;;;7.47;4.50;;;;;;;-4.68;68.17;101244.08;1723734;83;21497;-71
2022/01/11 19:27:34;;;;;;;5.90;4.00;;;;;;;-4.69;68.07;101247.52;1735251;81;21460;-71
2022/01/11 19:30:03;;;;;;;5.78;3.67;;;;;;;-4.72;67.77;101241.09;1750995;81;22545;-71
2022/01/11 19:32:31;;;;;;;8.43;4.12;;;;;;;-4.81;67.49;101243.70;1749593;80;21019;-74
2022/01/11 19:34:58;;;;;;;6.62;4.30;;;;;;;-4.85;67.56;101252.28;1736405;82;21389;-79
2022/01/11 19:37:27;;;;;;;7.60;4.12;;;;;;;-4.92;67.37;101255.32;1738770;82;21474;-75
2022/01/11 19:39:56;;;;;;;7.45;5.30;;;;;;;-4.93;67.50;101249.71;1762388;81;21027;-74
2022/01/11 19:42:28;;;;;;;17.87;10.08;;;;;;;-4.96;67.43;101253.59;1748907;82;21843;-73
2022/01/11 19:44:56;;;;;;;8.28;4.80;;;;;;;-4.98;67.50;101264.77;1749847;80;21079;-73
2022/01/11 19:47:23;;;;;;;6.92;4.40;;;;;;;-5.01;67.47;101264.35;1730614;81;21028;-73
2022/01/11 19:49:51;;;;;;;8.68;6.00;;;;;;;-5.04;67.33;101260.91;1760384;81;21923;-75
2022/01/11 19:52:18;;;;;;;7.37;4.67;;;;;;;-5.08;67.28;101252.77;1753339;81;21098;-71
2022/01/11 19:54:46;;;;;;;8.18;5.28;;;;;;;-5.10;67.37;101248.05;1742638;81;21900;-73
2022/01/11 19:57:14;;;;;;;11.15;5.62;;;;;;;-5.08;67.49;101251.05;1744180;80;21453;-72
2022/01/11 19:59:40;;;;;;;8.43;5.10;;;;;;;-5.08;67.44;101249.76;1747249;80;21004;-73
2022/01/11 20:02:08;;;;;;;6.95;4.70;;;;;;;-5.11;67.29;101252.78;1748713;81;21019;-76
2022/01/11 20:04:35;;;;;;;8.85;6.28;;;;;;;-5.15;67.37;101257.05;1745620;80;21044;-76
2022/01/11 20:07:03;;;;;;;8.58;4.47;;;;;;;-5.22;67.29;101253.62;1776282;80;21829;-70
2022/01/11 20:09:29;;;;;;;8.98;5.62;;;;;;;-5.25;67.31;101250.20;1775074;80;21086;-71
2022/01/11 20:11:56;;;;;;;7.62;4.53;;;;;;;-5.26;67.35;101248.48;1747813;80;21035;-73
2022/01/11 20:14:23;;;;;;;7.05;4.05;;;;;;;-5.30;67.17;101251.94;1761625;80;21030;-72
2022/01/11 20:16:51;;;;;;;6.50;3.85;;;;;;;-5.32;67.16;101252.34;1717216;83;21056;-71
2022/01/11 20:19:18;;;;;;;6.95;4.12;;;;;;;-5.34;67.15;101249.77;1725352;83;21848;-72
2022/01/11 20:27:19;;;;;;;5.97;3.95;;;;;;;-5.33;67.31;101259.20;1728582;81;21034;-71
2022/01/11 20:29:44;;;;;;;6.55;3.87;;;;;;;-5.33;67.20;101253.20;1748506;81;21336;-73
2022/01/11 20:32:12;;;;;;;6.15;3.80;;;;;;;-5.35;67.06;101260.94;1774513;80;21853;-71
2022/01/11 20:34:40;;;;;;;6.03;3.65;;;;;;;-5.39;66.88;101254.52;1739147;81;21040;-71
2022/01/11 20:37:08;;;;;;;5.55;3.60;;;;;;;-5.43;66.71;101260.50;1779363;80;21034;-71
2022/01/11 20:39:36;;;;;;;5.15;3.50;;;;;;;-5.53;66.40;101260.92;1741008;81;21592;-71
2022/01/11 20:42:06;;;;;;;7.05;3.60;;;;;;;-5.57;66.54;101270.80;1762440;80;21012;-71
2022/01/11 20:44:32;;;;;;;5.25;3.33;;;;;;;-5.64;66.46;101266.07;1755418;80;21850;-70
2022/01/11 20:46:59;;;;;;;5.92;3.45;;;;;;;-5.64;66.60;101269.08;1757703;80;21627;-72
2022/01/11 20:49:26;;;;;;;6.78;4.30;;;;;;;-5.65;66.58;101271.22;1734451;80;21070;-73
2022/01/11 20:52:19;;;;;;;7.15;4.42;;;;;;;-5.72;66.37;101282.35;1759384;81;20956;-72
2022/01/11 20:54:33;;;;;;;5.65;3.72;;;;;;;-5.76;66.45;101278.50;1731593;81;21003;-72
2022/01/11 20:57:04;;;;;;;7.25;4.15;;;;;;;-5.81;66.42;101271.61;1760519;80;21831;-71
2022/01/11 20:59:35;;;;;;;7.78;4.42;;;;;;;-5.86;66.43;101278.48;1764939;80;21036;-72
2022/01/11 21:02:04;;;;;;;9.58;5.62;;;;;;;-5.88;66.53;101285.34;1754044;80;21415;-72
2022/01/11 21:04:34;;;;;;;7.83;4.47;;;;;;;-5.90;66.56;101285.77;1744029;81;20956;-70
2022/01/11 21:07:00;;;;;;;10.75;5.40;;;;;;;-5.92;66.56;101286.20;1763358;80;21009;-71
2022/01/11 21:09:26;;;;;;;8.60;4.87;;;;;;;-5.95;66.53;101279.34;1766812;80;21792;-72
2022/01/11 21:11:53;;;;;;;6.75;3.98;;;;;;;-6.00;66.48;101272.03;1761724;80;20936;-70
2022/01/11 21:14:20;;;;;;;7.65;4.30;;;;;;;-6.06;66.42;101279.75;1767627;81;20989;-70
2022/01/11 21:22:09;;;;;;;6.03;3.22;;;;;;;-6.12;66.44;101283.58;1747822;81;21855;-72
2022/01/11 21:24:35;;;;;;;4.85;3.00;;;;;;;-6.17;66.25;101275.86;1761107;80;20955;-72
2022/01/11 21:27:05;;;;;;;6.67;3.87;;;;;;;-6.22;66.20;101282.69;1732634;81;20973;-71
2022/01/11 21:29:32;;;;;;;4.10;2.80;;;;;;;-6.24;66.25;101289.55;1763382;80;20976;-72
2022/01/11 21:31:59;;;;;;;5.78;3.42;;;;;;;-6.29;66.04;101289.08;1763415;80;21033;-72
2022/01/11 21:34:26;;;;;;;4.72;3.00;;;;;;;-6.33;66.17;101294.64;1775599;80;21825;-72
2022/01/11 21:36:53;;;;;;;5.50;3.30;;;;;;;-6.35;65.95;101294.64;1775916;80;21378;-72
2022/01/11 21:39:20;;;;;;;6.87;4.40;;;;;;;-6.41;65.82;101295.89;1733282;81;21510;-73
2022/01/11 21:41:46;;;;;;;5.60;3.75;;;;;;;-6.48;65.77;101293.27;1717653;83;20960;-72
2022/01/11 21:44:20;;;;;;;6.00;3.75;;;;;;;-6.53;65.98;101289.41;1729799;82;21055;-72
2022/01/11 21:46:42;;;;;;;7.15;3.58;;;;;;;-6.53;66.05;101288.13;1773150;80;21861;-71
2022/01/11 21:49:08;;;;;;;9.08;3.85;;;;;;;-6.52;65.98;101292.84;1787430;80;21019;-75
2022/01/11 21:51:35;;;;;;;5.58;3.45;;;;;;;-6.54;65.86;101286.84;1748772;81;20961;-70
2022/01/11 21:54:02;;;;;;;5.83;3.17;;;;;;;-6.60;65.86;101288.08;1768739;79;21018;-71
2022/01/11 21:56:29;;;;;;;5.37;3.12;;;;;;;-6.68;65.80;101289.32;1731293;81;21079;-73
2022/01/11 21:58:56;;;;;;;6.28;3.50;;;;;;;-6.71;65.77;101300.45;1726010;82;21800;-75
2022/01/11 22:01:22;;;;;;;4.20;2.92;;;;;;;-6.71;65.96;101294.02;1731180;81;21095;-75
2022/01/11 22:03:49;;;;;;;4.90;3.25;;;;;;;-6.71;65.96;101294.02;1733635;81;21001;-75
2022/01/11 22:06:15;;;;;;;4.35;2.95;;;;;;;-6.71;65.89;101293.16;1758239;80;21000;-73
2022/01/11 22:08:44;;;;;;;4.45;3.20;;;;;;;-6.76;65.83;101291.84;1734704;81;21029;-74
2022/01/11 22:11:10;;;;;;;5.72;3.33;;;;;;;-6.73;65.95;101286.73;1761423;81;21821;-74
2022/01/11 22:13:47;;;;;;;5.42;3.58;;;;;;;-6.74;65.98;101294.45;1747570;81;21461;-73
2022/01/11 22:16:17;;;;;;;12.28;6.35;;;;;;;-6.77;66.16;101285.41;1730331;82;21113;-74
2022/01/11 22:18:35;;;;;;;14.73;7.85;;;;;;;-6.77;66.16;101285.41;1741290;81;21552;-73
2022/01/11 22:21:03;;;;;;;18.62;9.58;;;;;;;-6.83;66.74;101291.82;1756666;81;20991;-74
2022/01/11 22:23:29;;;;;;;28.23;14.15;;;;;;;-6.86;66.75;101291.34;1756550;81;21731;-75
2022/01/11 22:25:56;;;;;;;13.62;7.37;;;;;;;-6.86;66.75;101291.34;1756333;81;20946;-75
2022/01/11 22:28:23;;;;;;;15.35;8.93;;;;;;;-6.86;67.03;101291.34;1756419;81;20976;-74
2022/01/11 22:30:50;;;;;;;21.65;12.85;;;;;;;-6.88;67.04;101291.77;1743182;81;21006;-74
2022/01/11 22:33:17;;;;;;;53.35;26.40;;;;;;;-6.92;67.10;101281.92;1731916;82;21541;-73
2022/01/11 22:35:43;;;;;;;16.60;8.50;;;;;;;-6.93;67.13;101279.34;1745349;81;22484;-74
2022/01/11 22:38:10;;;;;;;31.15;15.43;;;;;;;-6.97;67.20;101286.15;1755543;81;20983;-74
2022/01/11 22:40:37;;;;;;;13.32;8.43;;;;;;;-7.04;67.33;101279.28;1755584;81;21075;-74
2022/01/11 22:43:05;;;;;;;13.30;8.78;;;;;;;-7.04;67.33;101279.28;1755685;81;21027;-73
2022/01/11 22:45:31;;;;;;;28.98;17.55;;;;;;;-7.08;67.16;101285.22;1755655;81;21434;-74
2022/01/11 22:47:58;;;;;;;16.02;10.43;;;;;;;-7.03;67.39;101287.41;1739887;81;21914;-73
2022/01/11 22:50:25;;;;;;;8.38;5.58;;;;;;;-7.03;67.39;101287.41;1737735;81;20993;-74
2022/01/11 22:52:51;;;;;;;8.68;5.45;;;;;;;-7.01;67.29;101283.56;1753195;81;20949;-74
2022/01/11 22:55:18;;;;;;;12.75;8.25;;;;;;;-7.01;67.29;101283.56;1753223;80;20981;-73
2022/01/11 22:57:45;;;;;;;16.25;8.68;;;;;;;-7.04;67.18;101293.40;1753240;81;21040;-74
2022/01/11 23:00:14;;;;;;;14.70;8.15;;;;;;;-7.12;66.91;101289.91;1726633;83;24019;-75
2022/01/11 23:02:46;;;;;;;16.85;9.00;;;;;;;-7.19;66.97;101295.84;1753207;81;20985;-76
2022/01/11 23:05:10;;;;;;;14.03;8.43;;;;;;;-7.18;67.00;101299.27;1736063;81;21000;-75
2022/01/11 23:07:46;;;;;;;9.10;5.30;;;;;;;-7.22;66.98;101304.81;1728992;83;21007;-75
2022/01/11 23:10:08;;;;;;;10.68;6.40;;;;;;;-7.25;67.08;101300.91;1717529;83;21016;-75
2022/01/11 23:12:41;;;;;;;9.33;5.25;;;;;;;-7.30;67.02;101300.03;1718626;83;22478;-74
2022/01/11 23:15:12;;;;;;;8.38;5.42;;;;;;;-7.36;66.98;101294.84;1718711;82;21538;-72
2022/01/11 23:17:38;;;;;;;7.47;4.30;;;;;;;-7.36;66.98;101294.84;1718554;83;21059;-75
2022/01/11 23:20:06;;;;;;;7.40;4.30;;;;;;;-7.40;67.01;101303.38;1718760;81;21020;-73
2022/01/11 23:22:33;;;;;;;7.28;4.45;;;;;;;-7.44;67.29;101301.61;1735778;81;21006;-77
2022/01/11 23:25:00;;;;;;;6.42;4.40;;;;;;;-7.44;67.24;101304.17;1735075;82;21830;-73
2022/01/11 23:27:26;;;;;;;7.53;4.47;;;;;;;-7.44;67.24;101304.17;1734971;82;20863;-73
2022/01/11 23:29:53;;;;;;;7.10;4.60;;;;;;;-7.44;67.35;101296.47;1747636;82;20972;-75
2022/01/11 23:32:21;;;;;;;9.13;4.95;;;;;;;-7.44;67.35;101296.47;1748604;82;21056;-73
2022/01/11 23:34:49;;;;;;;9.20;5.10;;;;;;;-7.45;67.42;101302.45;1748356;81;21431;-73
2022/01/11 23:37:24;;;;;;;8.00;4.78;;;;;;;-7.45;67.42;101302.45;1718981;82;21864;-73
2022/01/11 23:42:25;;;;;;;7.42;4.40;;;;;;;-7.51;67.22;101301.57;1748442;82;20956;-72
2022/01/11 23:45:02;;;;;;;6.42;4.12;;;;;;;-7.58;67.07;101306.20;1751208;81;21415;-73
2022/01/11 23:47:17;;;;;;;6.85;3.40;;;;;;;-7.64;67.07;101313.83;1741902;80;21030;-73
2022/01/11 23:49:45;;;;;;;6.30;4.25;;;;;;;-7.68;67.16;101300.55;1774895;80;21901;-74
2022/01/11 23:52:12;;;;;;;7.95;4.15;;;;;;;-7.73;66.98;101306.46;1750758;81;20992;-73
2022/01/11 23:54:40;;;;;;;8.30;4.95;;;;;;;-7.77;67.18;101303.02;1739537;81;21010;-74
2022/01/11 23:57:09;;;;;;;7.25;4.70;;;;;;;-7.72;67.37;101308.18;1743521;81;21078;-73
2022/01/11 23:59:36;;;;;;;15.88;7.45;;;;;;;-7.68;67.42;101314.66;1743369;81;20998;-74
